sensor_id;sensor_type;location;lat;lon;timestamp;pressure;altitude;pressure_sealevel;temperature;humidity
45357;BME280;31092;51.924;21.448;2023-08-06T00:00:24;98858.97;;;19.37;100.00
45357;BME280;31092;51.924;21.448;2023-08-06T00:02:50;98799.13;;;19.03;100.00
45357;BME280;31092;51.924;21.448;2023-08-06T00:05:16;98840.16;;;19.35;100.00
45357;BME280;31092;51.924;21.448;2023-08-06T00:07:46;98857.44;;;19.46;100.00
45357;BME280;31092;51.924;21.448;2023-08-06T00:10:12;98838.22;;;19.36;100.00
45357;BME280;31092;51.924;21.448;2023-08-06T00:12:38;98833.19;;;19.50;100.00
45357;BME280;31092;51.924;21.448;2023-08-06T00:15:04;98835.03;;;19.44;100.00
45357;BME280;31092;51.924;21.448;2023-08-06T00:17:29;98832.88;;;19.46;100.00
45357;BME280;31092;51.924;21.448;2023-08-06T00:19:55;98830.69;;;19.48;100.00
45357;BME280;31092;51.924;21.448;2023-08-06T00:22:21;98790.31;;;19.23;100.00
45357;BME280;31092;51.924;21.448;2023-08-06T00:24:46;98780.13;;;19.13;100.00
45357;BME280;31092;51.924;21.448;2023-08-06T00:27:12;98833.94;;;19.45;100.00
45357;BME280;31092;51.924;21.448;2023-08-06T00:29:37;98801.75;;;19.20;100.00
45357;BME280;31092;51.924;21.448;2023-08-06T00:32:03;98858.63;;;19.55;100.00
45357;BME280;31092;51.924;21.448;2023-08-06T00:34:29;98817.69;;;19.28;100.00
45357;BME280;31092;51.924;21.448;2023-08-06T00:36:54;98847.66;;;19.50;100.00
45357;BME280;31092;51.924;21.448;2023-08-06T00:39:20;98834.44;;;19.42;100.00
45357;BME280;31092;51.924;21.448;2023-08-06T00:41:45;98851.13;;;19.46;100.00
45357;BME280;31092;51.924;21.448;2023-08-06T00:44:11;98837.41;;;19.35;100.00
45357;BME280;31092;51.924;21.448;2023-08-06T00:46:37;98783.59;;;19.04;100.00
45357;BME280;31092;51.924;21.448;2023-08-06T00:49:03;98825.28;;;19.26;100.00
45357;BME280;31092;51.924;21.448;2023-08-06T00:51:29;98756.06;;;18.83;100.00
45357;BME280;31092;51.924;21.448;2023-08-06T00:53:56;98831.03;;;19.25;100.00
45357;BME280;31092;51.924;21.448;2023-08-06T00:56:21;98772.16;;;18.85;100.00
45357;BME280;31092;51.924;21.448;2023-08-06T00:58:47;98744.69;;;18.70;100.00
45357;BME280;31092;51.924;21.448;2023-08-06T01:01:13;98773.44;;;18.77;100.00
45357;BME280;31092;51.924;21.448;2023-08-06T01:03:38;98817.59;;;18.96;100.00
45357;BME280;31092;51.924;21.448;2023-08-06T01:06:04;98843.94;;;19.07;100.00
45357;BME280;31092;51.924;21.448;2023-08-06T01:14:18;98821.47;;;19.00;100.00
45357;BME280;31092;51.924;21.448;2023-08-06T01:16:50;98810.25;;;18.97;100.00
45357;BME280;31092;51.924;21.448;2023-08-06T01:19:20;98775.63;;;18.75;100.00
45357;BME280;31092;51.924;21.448;2023-08-06T01:21:45;98781.44;;;18.84;100.00
45357;BME280;31092;51.924;21.448;2023-08-06T01:24:11;98779.84;;;18.88;100.00
45357;BME280;31092;51.924;21.448;2023-08-06T01:26:48;98776.09;;;18.94;100.00
45357;BME280;31092;51.924;21.448;2023-08-06T01:29:28;98751.44;;;18.84;100.00
45357;BME280;31092;51.924;21.448;2023-08-06T01:31:57;98710.22;;;18.58;100.00
45357;BME280;31092;51.924;21.448;2023-08-06T01:34:25;98689.94;;;18.49;100.00
45357;BME280;31092;51.924;21.448;2023-08-06T01:36:51;98676.28;;;18.49;100.00
45357;BME280;31092;51.924;21.448;2023-08-06T01:39:17;98668.38;;;18.48;100.00
45357;BME280;31092;51.924;21.448;2023-08-06T01:41:46;98735.97;;;18.89;100.00
45357;BME280;31092;51.924;21.448;2023-08-06T01:44:12;98666.47;;;18.48;100.00
45357;BME280;31092;51.924;21.448;2023-08-06T01:46:38;98675.28;;;18.55;100.00
45357;BME280;31092;51.924;21.448;2023-08-06T01:49:03;98708.88;;;18.83;100.00
45357;BME280;31092;51.924;21.448;2023-08-06T01:51:29;98698.28;;;18.86;100.00
45357;BME280;31092;51.924;21.448;2023-08-06T01:53:54;98678.56;;;18.79;100.00
45357;BME280;31092;51.924;21.448;2023-08-06T01:56:20;98692.31;;;18.89;100.00
45357;BME280;31092;51.924;21.448;2023-08-06T01:58:45;98684.13;;;18.89;100.00
45357;BME280;31092;51.924;21.448;2023-08-06T02:01:11;98639.69;;;18.67;100.00
45357;BME280;31092;51.924;21.448;2023-08-06T02:03:37;98686.69;;;19.01;100.00
45357;BME280;31092;51.924;21.448;2023-08-06T02:06:03;98633.50;;;18.72;100.00
45357;BME280;31092;51.924;21.448;2023-08-06T02:08:28;98682.31;;;19.00;100.00
45357;BME280;31092;51.924;21.448;2023-08-06T02:10:54;98676.56;;;18.97;100.00
45357;BME280;31092;51.924;21.448;2023-08-06T02:13:20;98623.78;;;18.59;100.00
45357;BME280;31092;51.924;21.448;2023-08-06T02:15:46;98680.72;;;19.04;100.00
45357;BME280;31092;51.924;21.448;2023-08-06T02:18:14;98678.19;;;18.98;100.00
45357;BME280;31092;51.924;21.448;2023-08-06T02:20:40;98666.41;;;18.92;100.00
45357;BME280;31092;51.924;21.448;2023-08-06T02:23:06;98667.56;;;18.96;100.00
45357;BME280;31092;51.924;21.448;2023-08-06T02:25:31;98679.38;;;19.07;100.00
45357;BME280;31092;51.924;21.448;2023-08-06T02:27:57;98617.97;;;18.72;100.00
45357;BME280;31092;51.924;21.448;2023-08-06T02:30:23;98616.88;;;18.73;100.00
45357;BME280;31092;51.924;21.448;2023-08-06T02:32:48;98667.63;;;19.06;100.00
45357;BME280;31092;51.924;21.448;2023-08-06T02:35:14;98667.06;;;19.04;100.00
45357;BME280;31092;51.924;21.448;2023-08-06T02:37:40;98603.72;;;18.70;100.00
45357;BME280;31092;51.924;21.448;2023-08-06T02:40:06;98643.31;;;19.00;100.00
45357;BME280;31092;51.924;21.448;2023-08-06T02:42:31;98640.31;;;19.01;100.00
45357;BME280;31092;51.924;21.448;2023-08-06T02:44:57;98646.66;;;19.07;100.00
45357;BME280;31092;51.924;21.448;2023-08-06T02:47:23;98630.72;;;18.99;100.00
45357;BME280;31092;51.924;21.448;2023-08-06T02:49:49;98562.91;;;18.53;100.00
45357;BME280;31092;51.924;21.448;2023-08-06T02:52:14;98623.06;;;18.96;100.00
45357;BME280;31092;51.924;21.448;2023-08-06T02:54:40;98615.75;;;19.01;100.00
45357;BME280;31092;51.924;21.448;2023-08-06T02:57:06;98602.91;;;18.97;100.00
45357;BME280;31092;51.924;21.448;2023-08-06T02:59:32;98547.75;;;18.62;100.00
45357;BME280;31092;51.924;21.448;2023-08-06T03:01:57;98610.00;;;18.98;100.00
45357;BME280;31092;51.924;21.448;2023-08-06T03:04:30;98553.50;;;18.66;100.00
45357;BME280;31092;51.924;21.448;2023-08-06T03:06:56;98571.38;;;18.79;100.00
45357;BME280;31092;51.924;21.448;2023-08-06T03:09:22;98590.91;;;19.03;100.00
45357;BME280;31092;51.924;21.448;2023-08-06T03:11:48;98518.84;;;18.61;100.00
45357;BME280;31092;51.924;21.448;2023-08-06T03:14:13;98564.94;;;18.95;100.00
45357;BME280;31092;51.924;21.448;2023-08-06T03:16:39;98523.25;;;18.67;100.00
45357;BME280;31092;51.924;21.448;2023-08-06T03:19:05;98580.59;;;19.05;100.00
45357;BME280;31092;51.924;21.448;2023-08-06T03:21:30;98555.94;;;18.95;100.00
45357;BME280;31092;51.924;21.448;2023-08-06T03:23:58;98524.75;;;18.80;100.00
45357;BME280;31092;51.924;21.448;2023-08-06T03:26:24;98518.19;;;18.76;100.00
45357;BME280;31092;51.924;21.448;2023-08-06T03:28:49;98508.34;;;18.75;100.00
45357;BME280;31092;51.924;21.448;2023-08-06T03:31:15;98501.00;;;18.76;100.00
45357;BME280;31092;51.924;21.448;2023-08-06T03:33:41;98535.50;;;18.97;100.00
45357;BME280;31092;51.924;21.448;2023-08-06T03:36:06;98546.22;;;19.04;100.00
45357;BME280;31092;51.924;21.448;2023-08-06T03:38:32;98539.09;;;19.03;100.00
45357;BME280;31092;51.924;21.448;2023-08-06T03:40:57;98536.94;;;19.05;100.00
45357;BME280;31092;51.924;21.448;2023-08-06T03:43:23;98522.41;;;18.99;100.00
45357;BME280;31092;51.924;21.448;2023-08-06T03:45:58;98526.03;;;19.10;100.00
45357;BME280;31092;51.924;21.448;2023-08-06T03:48:24;98529.63;;;19.16;100.00
45357;BME280;31092;51.924;21.448;2023-08-06T03:50:49;98482.78;;;18.86;100.00
45357;BME280;31092;51.924;21.448;2023-08-06T03:53:15;98496.81;;;19.00;100.00
45357;BME280;31092;51.924;21.448;2023-08-06T03:55:40;98430.50;;;18.62;100.00
45357;BME280;31092;51.924;21.448;2023-08-06T03:58:06;98489.69;;;18.99;100.00
45357;BME280;31092;51.924;21.448;2023-08-06T04:00:31;98471.59;;;18.88;100.00
45357;BME280;31092;51.924;21.448;2023-08-06T04:02:57;98446.47;;;18.81;100.00
45357;BME280;31092;51.924;21.448;2023-08-06T04:05:22;98490.84;;;19.08;100.00
45357;BME280;31092;51.924;21.448;2023-08-06T04:07:48;98425.41;;;18.71;100.00
45357;BME280;31092;51.924;21.448;2023-08-06T04:10:14;98500.19;;;19.23;100.00
45357;BME280;31092;51.924;21.448;2023-08-06T04:13:00;98434.00;;;18.90;100.00
45357;BME280;31092;51.924;21.448;2023-08-06T04:15:26;98428.25;;;18.86;100.00
45357;BME280;31092;51.924;21.448;2023-08-06T04:17:51;98453.44;;;19.04;100.00
45357;BME280;31092;51.924;21.448;2023-08-06T04:20:17;98440.56;;;18.94;100.00
45357;BME280;31092;51.924;21.448;2023-08-06T04:22:42;98479.22;;;19.33;100.00
45357;BME280;31092;51.924;21.448;2023-08-06T04:25:08;98472.16;;;19.32;100.00
45357;BME280;31092;51.924;21.448;2023-08-06T04:27:34;98476.50;;;19.38;100.00
45357;BME280;31092;51.924;21.448;2023-08-06T04:30:07;98457.97;;;19.35;100.00
45357;BME280;31092;51.924;21.448;2023-08-06T04:32:33;98465.06;;;19.42;100.00
45357;BME280;31092;51.924;21.448;2023-08-06T04:34:59;98454.72;;;19.44;100.00
45357;BME280;31092;51.924;21.448;2023-08-06T04:37:24;98441.88;;;19.49;100.00
45357;BME280;31092;51.924;21.448;2023-08-06T04:39:50;98465.16;;;19.57;100.00
45357;BME280;31092;51.924;21.448;2023-08-06T04:42:16;98432.59;;;19.45;100.00
45357;BME280;31092;51.924;21.448;2023-08-06T04:44:41;98428.78;;;19.46;100.00
45357;BME280;31092;51.924;21.448;2023-08-06T04:47:07;98375.75;;;19.22;100.00
45357;BME280;31092;51.924;21.448;2023-08-06T04:49:32;98430.19;;;19.59;100.00
45357;BME280;31092;51.924;21.448;2023-08-06T04:52:00;98372.78;;;19.28;100.00
45357;BME280;31092;51.924;21.448;2023-08-06T04:54:26;98435.47;;;19.76;100.00
45357;BME280;31092;51.924;21.448;2023-08-06T04:56:51;98411.69;;;19.71;100.00
45357;BME280;31092;51.924;21.448;2023-08-06T04:59:17;98366.28;;;19.50;100.00
45357;BME280;31092;51.924;21.448;2023-08-06T05:01:43;98426.19;;;19.87;100.00
45357;BME280;31092;51.924;21.448;2023-08-06T05:04:08;98349.63;;;19.51;100.00
45357;BME280;31092;51.924;21.448;2023-08-06T05:06:34;98350.72;;;19.55;100.00
45357;BME280;31092;51.924;21.448;2023-08-06T05:09:00;98401.88;;;19.91;100.00
45357;BME280;31092;51.924;21.448;2023-08-06T05:11:25;98354.59;;;19.65;100.00
45357;BME280;31092;51.924;21.448;2023-08-06T05:13:52;98370.72;;;19.71;100.00
45357;BME280;31092;51.924;21.448;2023-08-06T05:16:17;98397.78;;;19.98;100.00
45357;BME280;31092;51.924;21.448;2023-08-06T05:18:43;98357.34;;;19.80;100.00
45357;BME280;31092;51.924;21.448;2023-08-06T05:21:08;98355.69;;;19.84;100.00
45357;BME280;31092;51.924;21.448;2023-08-06T05:23:34;98320.72;;;19.71;100.00
45357;BME280;31092;51.924;21.448;2023-08-06T05:25:59;98317.72;;;19.67;100.00
45357;BME280;31092;51.924;21.448;2023-08-06T05:28:25;98382.75;;;20.16;100.00
45357;BME280;31092;51.924;21.448;2023-08-06T05:30:50;98384.41;;;20.22;100.00
45357;BME280;31092;51.924;21.448;2023-08-06T05:33:15;98324.56;;;19.95;100.00
45357;BME280;31092;51.924;21.448;2023-08-06T05:35:41;98369.09;;;20.31;100.00
45357;BME280;31092;51.924;21.448;2023-08-06T05:38:07;98377.28;;;20.52;100.00
45357;BME280;31092;51.924;21.448;2023-08-06T05:40:34;98366.88;;;20.64;100.00
45357;BME280;31092;51.924;21.448;2023-08-06T05:42:59;98363.28;;;20.79;100.00
45357;BME280;31092;51.924;21.448;2023-08-06T05:45:24;98311.34;;;20.69;100.00
45357;BME280;31092;51.924;21.448;2023-08-06T05:47:50;98354.63;;;21.21;100.00
45357;BME280;31092;51.924;21.448;2023-08-06T05:50:17;98355.94;;;21.34;100.00
45357;BME280;31092;51.924;21.448;2023-08-06T05:52:42;98337.03;;;21.43;100.00
45357;BME280;31092;51.924;21.448;2023-08-06T05:55:08;98263.75;;;21.19;100.00
45357;BME280;31092;51.924;21.448;2023-08-06T05:57:34;98350.28;;;22.04;100.00
45357;BME280;31092;51.924;21.448;2023-08-06T06:00:00;98283.34;;;21.81;100.00
45357;BME280;31092;51.924;21.448;2023-08-06T06:02:26;98269.66;;;21.81;100.00
45357;BME280;31092;51.924;21.448;2023-08-06T06:04:51;98325.16;;;22.26;100.00
45357;BME280;31092;51.924;21.448;2023-08-06T06:07:17;98283.69;;;22.04;100.00
45357;BME280;31092;51.924;21.448;2023-08-06T06:09:42;98253.63;;;21.93;100.00
45357;BME280;31092;51.924;21.448;2023-08-06T06:12:08;98262.44;;;22.19;100.00
45357;BME280;31092;51.924;21.448;2023-08-06T06:14:33;98260.03;;;22.42;100.00
45357;BME280;31092;51.924;21.448;2023-08-06T06:16:59;98238.25;;;22.51;100.00
45357;BME280;31092;51.924;21.448;2023-08-06T06:19:25;98261.34;;;22.68;100.00
45357;BME280;31092;51.924;21.448;2023-08-06T06:21:51;98237.00;;;22.62;100.00
45357;BME280;31092;51.924;21.448;2023-08-06T06:24:17;98220.84;;;22.60;100.00
45357;BME280;31092;51.924;21.448;2023-08-06T06:26:42;98309.03;;;23.21;100.00
45357;BME280;31092;51.924;21.448;2023-08-06T06:29:08;98280.31;;;23.13;100.00
45357;BME280;31092;51.924;21.448;2023-08-06T06:31:33;98215.38;;;22.79;100.00
45357;BME280;31092;51.924;21.448;2023-08-06T06:33:59;98287.94;;;23.35;100.00
45357;BME280;31092;51.924;21.448;2023-08-06T06:36:24;98214.47;;;23.08;100.00
45357;BME280;31092;51.924;21.448;2023-08-06T06:38:49;98248.31;;;23.41;100.00
45357;BME280;31092;51.924;21.448;2023-08-06T06:41:15;98218.47;;;23.34;100.00
45357;BME280;31092;51.924;21.448;2023-08-06T06:43:40;98261.19;;;23.78;100.00
45357;BME280;31092;51.924;21.448;2023-08-06T06:46:06;98269.16;;;23.94;100.00
45357;BME280;31092;51.924;21.448;2023-08-06T06:48:32;98236.88;;;23.85;100.00
45357;BME280;31092;51.924;21.448;2023-08-06T06:50:58;98219.84;;;23.83;100.00
45357;BME280;31092;51.924;21.448;2023-08-06T06:53:24;98243.53;;;23.98;100.00
45357;BME280;31092;51.924;21.448;2023-08-06T06:55:56;98239.47;;;24.09;100.00
45357;BME280;31092;51.924;21.448;2023-08-06T06:58:26;98193.88;;;23.76;100.00
45357;BME280;31092;51.924;21.448;2023-08-06T07:00:51;98214.50;;;23.92;100.00
45357;BME280;31092;51.924;21.448;2023-08-06T07:03:17;98256.63;;;24.34;100.00
45357;BME280;31092;51.924;21.448;2023-08-06T07:05:44;98242.47;;;24.27;100.00
45357;BME280;31092;51.924;21.448;2023-08-06T07:08:09;98260.03;;;24.45;100.00
45357;BME280;31092;51.924;21.448;2023-08-06T07:10:35;98203.22;;;24.21;100.00
45357;BME280;31092;51.924;21.448;2023-08-06T07:13:01;98255.94;;;24.56;100.00
45357;BME280;31092;51.924;21.448;2023-08-06T07:15:26;98199.97;;;24.33;100.00
45357;BME280;31092;51.924;21.448;2023-08-06T07:17:52;98250.84;;;24.63;100.00
45357;BME280;31092;51.924;21.448;2023-08-06T07:20:17;98211.31;;;24.45;100.00
45357;BME280;31092;51.924;21.448;2023-08-06T07:22:44;98214.06;;;24.59;100.00
45357;BME280;31092;51.924;21.448;2023-08-06T07:25:09;98193.78;;;24.55;100.00
45357;BME280;31092;51.924;21.448;2023-08-06T07:27:35;98228.28;;;24.89;100.00
45357;BME280;31092;51.924;21.448;2023-08-06T07:30:00;98200.75;;;24.89;100.00
45357;BME280;31092;51.924;21.448;2023-08-06T07:32:26;98194.69;;;25.00;100.00
45357;BME280;31092;51.924;21.448;2023-08-06T07:34:53;98200.59;;;25.21;100.00
45357;BME280;31092;51.924;21.448;2023-08-06T07:37:22;98204.47;;;25.43;100.00
45357;BME280;31092;51.924;21.448;2023-08-06T07:39:48;98253.97;;;25.93;100.00
45357;BME280;31092;51.924;21.448;2023-08-06T07:42:13;98269.03;;;26.18;100.00
45357;BME280;31092;51.924;21.448;2023-08-06T07:44:39;98206.00;;;25.94;100.00
45357;BME280;31092;51.924;21.448;2023-08-06T07:47:05;98220.50;;;26.08;100.00
45357;BME280;31092;51.924;21.448;2023-08-06T07:49:30;98205.13;;;26.16;100.00
45357;BME280;31092;51.924;21.448;2023-08-06T07:51:56;98226.81;;;26.40;100.00
45357;BME280;31092;51.924;21.448;2023-08-06T07:54:21;98216.63;;;26.49;100.00
45357;BME280;31092;51.924;21.448;2023-08-06T07:56:47;98251.66;;;26.88;100.00
45357;BME280;31092;51.924;21.448;2023-08-06T07:59:13;98220.47;;;26.96;100.00
45357;BME280;31092;51.924;21.448;2023-08-06T08:01:38;98253.56;;;27.36;100.00
45357;BME280;31092;51.924;21.448;2023-08-06T08:04:04;98170.94;;;27.17;100.00
45357;BME280;31092;51.924;21.448;2023-08-06T08:06:30;98192.56;;;27.41;100.00
45357;BME280;31092;51.924;21.448;2023-08-06T08:08:55;98243.47;;;27.75;100.00
45357;BME280;31092;51.924;21.448;2023-08-06T08:11:21;98224.75;;;27.72;100.00
45357;BME280;31092;51.924;21.448;2023-08-06T08:13:46;98176.09;;;27.62;100.00
45357;BME280;31092;51.924;21.448;2023-08-06T08:16:12;98178.19;;;27.74;100.00
45357;BME280;31092;51.924;21.448;2023-08-06T08:18:37;98218.66;;;28.05;100.00
45357;BME280;31092;51.924;21.448;2023-08-06T08:21:03;98191.84;;;27.70;100.00
45357;BME280;31092;51.924;21.448;2023-08-06T08:23:28;98179.06;;;27.49;100.00
45357;BME280;31092;51.924;21.448;2023-08-06T08:25:54;98244.75;;;27.78;100.00
45357;BME280;31092;51.924;21.448;2023-08-06T08:28:19;98246.56;;;27.82;100.00
45357;BME280;31092;51.924;21.448;2023-08-06T08:30:58;98195.94;;;27.82;100.00
45357;BME280;31092;51.924;21.448;2023-08-06T08:33:26;98241.84;;;28.30;100.00
45357;BME280;31092;51.924;21.448;2023-08-06T08:35:52;98192.00;;;28.38;100.00
45357;BME280;31092;51.924;21.448;2023-08-06T08:38:17;98243.06;;;28.88;100.00
45357;BME280;31092;51.924;21.448;2023-08-06T08:40:46;98253.97;;;28.93;100.00
45357;BME280;31092;51.924;21.448;2023-08-06T08:43:13;98196.19;;;28.53;100.00
45357;BME280;31092;51.924;21.448;2023-08-06T08:45:42;98185.66;;;28.38;100.00
45357;BME280;31092;51.924;21.448;2023-08-06T08:48:09;98183.94;;;28.25;100.00
45357;BME280;31092;51.924;21.448;2023-08-06T08:50:38;98249.47;;;28.80;100.00
45357;BME280;31092;51.924;21.448;2023-08-06T08:53:05;98224.34;;;28.85;100.00
45357;BME280;31092;51.924;21.448;2023-08-06T08:55:31;98231.00;;;28.93;100.00
45357;BME280;31092;51.924;21.448;2023-08-06T08:57:57;98177.84;;;28.70;100.00
45357;BME280;31092;51.924;21.448;2023-08-06T09:00:23;98226.19;;;29.31;100.00
45357;BME280;31092;51.924;21.448;2023-08-06T09:02:49;98169.81;;;28.77;100.00
45357;BME280;31092;51.924;21.448;2023-08-06T09:05:16;98165.72;;;28.53;100.00
45357;BME280;31092;51.924;21.448;2023-08-06T09:07:47;98188.09;;;28.69;100.00
45357;BME280;31092;51.924;21.448;2023-08-06T09:10:14;98240.56;;;29.04;100.00
45357;BME280;31092;51.924;21.448;2023-08-06T09:12:43;98244.72;;;28.89;100.00
45357;BME280;31092;51.924;21.448;2023-08-06T09:15:10;98178.19;;;28.68;100.00
45357;BME280;31092;51.924;21.448;2023-08-06T09:17:36;98182.38;;;28.95;100.00
45357;BME280;31092;51.924;21.448;2023-08-06T09:20:14;98149.06;;;28.83;100.00
45357;BME280;31092;51.924;21.448;2023-08-06T09:22:40;98167.66;;;29.24;100.00
45357;BME280;31092;51.924;21.448;2023-08-06T09:25:07;98178.19;;;29.52;100.00
45357;BME280;31092;51.924;21.448;2023-08-06T09:27:39;98185.81;;;29.76;100.00
45357;BME280;31092;51.924;21.448;2023-08-06T09:30:06;98175.09;;;29.87;100.00
45357;BME280;31092;51.924;21.448;2023-08-06T09:32:48;98162.75;;;30.09;100.00
45357;BME280;31092;51.924;21.448;2023-08-06T09:35:17;98224.47;;;30.51;100.00
45357;BME280;31092;51.924;21.448;2023-08-06T09:37:43;98223.44;;;30.68;100.00
45357;BME280;31092;51.924;21.448;2023-08-06T09:40:32;98220.09;;;30.87;100.00
45357;BME280;31092;51.924;21.448;2023-08-06T09:42:58;98176.19;;;30.56;100.00
45357;BME280;31092;51.924;21.448;2023-08-06T09:45:30;98171.22;;;30.61;100.00
45357;BME280;31092;51.924;21.448;2023-08-06T09:47:57;98174.59;;;30.54;100.00
45357;BME280;31092;51.924;21.448;2023-08-06T09:50:34;98209.44;;;30.40;100.00
45357;BME280;31092;51.924;21.448;2023-08-06T09:53:04;98195.53;;;30.52;100.00
45357;BME280;31092;51.924;21.448;2023-08-06T09:55:32;98143.59;;;30.28;100.00
45357;BME280;31092;51.924;21.448;2023-08-06T09:57:58;98207.25;;;30.45;100.00
45357;BME280;31092;51.924;21.448;2023-08-06T10:00:24;98181.91;;;29.89;100.00
45357;BME280;31092;51.924;21.448;2023-08-06T10:02:50;98186.56;;;29.97;100.00
45357;BME280;31092;51.924;21.448;2023-08-06T10:05:20;98140.31;;;30.01;100.00
45357;BME280;31092;51.924;21.448;2023-08-06T10:07:46;98184.44;;;30.76;100.00
45357;BME280;31092;51.924;21.448;2023-08-06T10:10:12;98132.81;;;30.26;100.00
45357;BME280;31092;51.924;21.448;2023-08-06T10:12:51;98160.88;;;30.13;100.00
45357;BME280;31092;51.924;21.448;2023-08-06T10:15:22;98126.88;;;29.79;100.00
45357;BME280;31092;51.924;21.448;2023-08-06T10:17:51;98176.13;;;29.94;100.00
45357;BME280;31092;51.924;21.448;2023-08-06T10:20:18;98183.78;;;29.97;100.00
45357;BME280;31092;51.924;21.448;2023-08-06T10:22:46;98137.91;;;29.33;100.00
45357;BME280;31092;51.924;21.448;2023-08-06T10:25:24;98159.56;;;29.52;100.00
45357;BME280;31092;51.924;21.448;2023-08-06T10:30:26;98121.50;;;29.28;100.00
45357;BME280;31092;51.924;21.448;2023-08-06T10:32:53;98181.19;;;29.47;100.00
45357;BME280;31092;51.924;21.448;2023-08-06T10:35:41;98178.78;;;29.57;100.00
45357;BME280;31092;51.924;21.448;2023-08-06T10:38:10;98173.59;;;29.89;100.00
45357;BME280;31092;51.924;21.448;2023-08-06T10:40:40;98111.28;;;30.11;100.00
45357;BME280;31092;51.924;21.448;2023-08-06T10:43:06;98170.88;;;30.87;100.00
45357;BME280;31092;51.924;21.448;2023-08-06T10:45:37;98107.47;;;30.40;100.00
45357;BME280;31092;51.924;21.448;2023-08-06T10:48:03;98160.81;;;30.34;100.00
45357;BME280;31092;51.924;21.448;2023-08-06T10:50:30;98094.94;;;29.73;100.00
45357;BME280;31092;51.924;21.448;2023-08-06T10:52:57;98129.50;;;29.75;100.00
45357;BME280;31092;51.924;21.448;2023-08-06T10:55:27;98040.19;;;29.37;100.00
45357;BME280;31092;51.924;21.448;2023-08-06T10:57:53;98113.00;;;29.79;100.00
45357;BME280;31092;51.924;21.448;2023-08-06T11:00:20;98076.19;;;29.24;100.00
45357;BME280;31092;51.924;21.448;2023-08-06T11:02:47;98059.63;;;28.82;100.00
45357;BME280;31092;51.924;21.448;2023-08-06T11:05:14;98118.81;;;29.53;100.00
45357;BME280;31092;51.924;21.448;2023-08-06T11:07:40;98055.94;;;29.57;100.00
45357;BME280;31092;51.924;21.448;2023-08-06T11:10:10;98117.50;;;29.83;100.00
45357;BME280;31092;51.924;21.448;2023-08-06T11:12:36;98119.53;;;29.62;100.00
45357;BME280;31092;51.924;21.448;2023-08-06T11:15:03;98093.22;;;29.35;100.00
45357;BME280;31092;51.924;21.448;2023-08-06T11:17:30;98056.09;;;29.27;100.00
45357;BME280;31092;51.924;21.448;2023-08-06T11:19:59;98077.84;;;29.95;100.00
45357;BME280;31092;51.924;21.448;2023-08-06T11:22:25;98041.88;;;29.62;100.00
45357;BME280;31092;51.924;21.448;2023-08-06T11:24:52;98077.41;;;29.48;100.00
45357;BME280;31092;51.924;21.448;2023-08-06T11:27:18;98082.34;;;29.30;100.00
45357;BME280;31092;51.924;21.448;2023-08-06T11:29:44;98087.31;;;29.37;100.00
45357;BME280;31092;51.924;21.448;2023-08-06T11:32:10;98087.00;;;29.17;100.00
45357;BME280;31092;51.924;21.448;2023-08-06T11:34:36;98026.56;;;28.56;100.00
45357;BME280;31092;51.924;21.448;2023-08-06T11:37:05;97972.31;;;28.43;100.00
45357;BME280;31092;51.924;21.448;2023-08-06T11:39:36;98005.19;;;29.32;100.00
45357;BME280;31092;51.924;21.448;2023-08-06T11:42:07;98068.38;;;30.33;100.00
45357;BME280;31092;51.924;21.448;2023-08-06T11:44:35;98061.34;;;30.88;100.00
45357;BME280;31092;51.924;21.448;2023-08-06T11:47:03;98046.47;;;30.96;100.00
45357;BME280;31092;51.924;21.448;2023-08-06T11:52:25;98068.72;;;30.07;100.00
45357;BME280;31092;51.924;21.448;2023-08-06T11:57:32;98091.25;;;29.02;100.00
45357;BME280;31092;51.924;21.448;2023-08-06T12:00:04;98057.47;;;28.46;100.00
45357;BME280;31092;51.924;21.448;2023-08-06T12:02:32;98094.88;;;28.52;100.00
45357;BME280;31092;51.924;21.448;2023-08-06T12:05:13;98036.28;;;27.91;100.00
45357;BME280;31092;51.924;21.448;2023-08-06T12:07:49;98041.03;;;27.82;100.00
45357;BME280;31092;51.924;21.448;2023-08-06T12:10:15;98071.00;;;28.09;100.00
45357;BME280;31092;51.924;21.448;2023-08-06T12:13:06;98079.03;;;28.02;100.00
45357;BME280;31092;51.924;21.448;2023-08-06T12:15:32;98014.47;;;27.51;100.00
45357;BME280;31092;51.924;21.448;2023-08-06T12:17:57;98031.22;;;27.55;100.00
45357;BME280;31092;51.924;21.448;2023-08-06T12:20:23;98018.41;;;27.41;100.00
45357;BME280;31092;51.924;21.448;2023-08-06T12:22:49;98094.13;;;27.75;100.00
45357;BME280;31092;51.924;21.448;2023-08-06T12:25:14;98033.72;;;27.30;100.00
45357;BME280;31092;51.924;21.448;2023-08-06T12:27:41;98053.03;;;27.48;100.00
45357;BME280;31092;51.924;21.448;2023-08-06T12:30:09;98039.88;;;27.44;100.00
45357;BME280;31092;51.924;21.448;2023-08-06T12:32:35;98049.75;;;27.54;100.00
45357;BME280;31092;51.924;21.448;2023-08-06T12:35:01;97987.75;;;27.17;100.00
45357;BME280;31092;51.924;21.448;2023-08-06T12:37:27;98003.03;;;27.23;100.00
45357;BME280;31092;51.924;21.448;2023-08-06T12:39:53;98042.63;;;27.44;100.00
45357;BME280;31092;51.924;21.448;2023-08-06T12:42:18;98071.72;;;27.51;100.00
45357;BME280;31092;51.924;21.448;2023-08-06T12:44:44;98071.31;;;27.05;100.00
45357;BME280;31092;51.924;21.448;2023-08-06T12:47:10;98096.97;;;26.62;100.00
45357;BME280;31092;51.924;21.448;2023-08-06T12:49:35;98127.88;;;26.24;100.00
45357;BME280;31092;51.924;21.448;2023-08-06T12:52:01;98069.69;;;25.55;100.00